Карточка аэропорта USRR

Внимание!
Информация на этой странице в стадии наполнения.
Если вы не увидели какой-то информации, или заметили неточность - пожалуйста сообщите нам!
Спасибо!
Команда RU-STAFF
Название аэропортаСургут
Название аэропорта (англ.)Surgut
Превышение196 ft. (59.7 m.)
Координаты61°20.502', 73°24.168'
Высота перехода700m
Эшелон переходаQFE>=742mm:FL040; QFE<=742mm:FL050
Коды ответчика5570-5577
Зона ОрВДТюмень РПИ (USTV)
Данные METARUSRR 290800Z 32010G16MPS 6000 -SHSN BKN022CB M00/M04 Q1005 R25/290055 TEMPO 0500 +SHSN VV002 RMK OBST OBSC QFE748
Проноз погоды (TAF)USRR 290445Z 2906/3006 30010G16MPS 3000 -SHSN SCT007 BKN017CB TEMPO 2906/2924 31012G22MPS 0500 +SHSN BLSN VV005 FM300000 32005G12MPS 9999 FEW005 BKN020CB TEMPO 3000/3006 5000 -SHSN
NOTAMshow/hide NOTAM
AWOS   TABLE

Информация о ВПП

ВПП Длина ВПП (м.) Покрытие Курс ВПП Частота ILS
252780Асфальтобетон253109.1
072780Асфальтобетон73110.5

Диспетчерские позиции

Позывной Наименование органа УВД Частота
USRR_APPСургут-Подход129.300
USRR_R_APPСургут - Круг120.300
USRR_TWRСургут-Вышка120.800



Спутниковое изображение